Time;durP1;ratioP1;P1;durP2;ratioP2;P2;SDS_P1;SDS_P2;PMS_P1;PMS_P2;Temp;Humidity;BMP_temperature;BMP_pressure;BME280_temperature;BME280_humidity;BME280_pressure;Samples;Min_cycle;Max_cycle;Signal;HPM_P1;HPM_P2
2022/04/30 00:00:30;;;;;;;4.20;3.10;;;;;;;22.08;53.46;100076.03;4972075;29;20027;-89
2022/04/30 00:03:00;;;;;;;4.57;2.97;;;;;;;22.06;53.19;100077.06;4971529;29;20050;-87
2022/04/30 00:05:34;;;;;;;4.80;3.20;;;;;;;22.04;53.44;100074.50;4973209;29;20082;-89
2022/04/30 00:08:01;;;;;;;5.18;3.63;;;;;;;22.02;53.33;100073.72;4973539;29;20042;-88
2022/04/30 00:10:27;;;;;;;4.20;2.97;;;;;;;22.00;53.63;100068.47;4973094;29;20031;-88
2022/04/30 00:12:53;;;;;;;4.40;3.13;;;;;;;21.99;53.23;100069.44;4974480;28;20116;-89
2022/04/30 00:15:20;;;;;;;5.35;3.50;;;;;;;21.97;53.39;100063.34;4974786;29;20023;-89
2022/04/30 00:17:46;;;;;;;4.78;3.13;;;;;;;21.96;53.41;100077.59;4974841;29;20023;-90
2022/04/30 00:20:12;;;;;;;5.43;3.20;;;;;;;21.94;53.47;100074.13;4973992;29;20055;-89
2022/04/30 00:22:38;;;;;;;4.68;3.10;;;;;;;21.94;53.54;100070.63;4975555;29;20031;-90
2022/04/30 00:25:05;;;;;;;4.18;3.10;;;;;;;21.93;53.47;100064.47;4973759;29;20039;-89
2022/04/30 00:27:31;;;;;;;4.28;3.00;;;;;;;21.92;53.54;100069.84;4974708;29;20031;-88
2022/04/30 00:29:58;;;;;;;4.22;3.08;;;;;;;21.92;53.56;100069.84;4973232;29;20027;-87
2022/04/30 00:32:24;;;;;;;4.32;3.00;;;;;;;21.91;53.51;100069.00;4971779;29;20039;-88
2022/04/30 00:34:49;;;;;;;5.13;3.20;;;;;;;21.89;53.45;100072.69;4970360;29;20062;-86
2022/04/30 00:37:15;;;;;;;4.22;2.95;;;;;;;21.89;53.44;100067.38;4970364;29;20099;-88
2022/04/30 00:39:41;;;;;;;3.83;2.80;;;;;;;21.88;53.58;100063.00;4970630;29;20051;-91
2022/04/30 00:42:11;;;;;;;4.40;2.85;;;;;;;21.88;53.45;100069.16;4970090;29;20151;-91
2022/04/30 00:44:37;;;;;;;4.50;3.28;;;;;;;21.86;53.63;100057.78;4954794;29;20131;-90
2022/04/30 00:47:03;;;;;;;4.18;2.78;;;;;;;21.86;53.52;100063.09;4967852;29;20083;-88
2022/04/30 00:49:28;;;;;;;5.28;3.28;;;;;;;21.83;53.34;100045.50;4984217;28;20079;-88
2022/04/30 00:51:58;;;;;;;4.13;2.90;;;;;;;21.83;53.55;100048.16;4970202;29;20035;-89
2022/04/30 00:54:26;;;;;;;5.18;2.97;;;;;;;21.82;53.35;100038.50;4972484;29;20038;-87
2022/04/30 00:56:56;;;;;;;4.88;3.25;;;;;;;21.82;53.46;100043.81;4972283;29;20035;-87
2022/04/30 00:59:24;;;;;;;4.40;3.08;;;;;;;21.82;53.51;100048.25;4988219;28;20036;-87
2022/04/30 01:01:50;;;;;;;3.78;2.72;;;;;;;21.81;53.58;100041.22;4972106;29;20027;-87
2022/04/30 01:04:18;;;;;;;5.05;2.92;;;;;;;21.78;53.51;100039.59;4971198;29;20099;-87
2022/04/30 01:06:51;;;;;;;4.28;3.05;;;;;;;21.79;53.44;100045.78;4971968;29;20031;-87
2022/04/30 01:09:28;;;;;;;4.35;2.83;;;;;;;21.79;53.56;100037.81;4972932;29;20023;-88
2022/04/30 01:12:10;;;;;;;4.38;2.83;;;;;;;21.80;53.63;100039.53;4970802;28;20035;-88
2022/04/30 01:14:38;;;;;;;4.38;2.95;;;;;;;21.80;53.62;100044.84;4973204;29;20031;-88
2022/04/30 01:17:06;;;;;;;4.50;2.92;;;;;;;21.79;53.57;100037.81;4973339;29;20369;-88
2022/04/30 01:19:36;;;;;;;4.47;2.90;;;;;;;21.77;53.58;100032.56;4972039;29;20080;-90
2022/04/30 01:22:08;;;;;;;4.50;2.90;;;;;;;21.79;53.55;100037.81;4972725;29;20042;-89
2022/04/30 01:24:36;;;;;;;4.45;2.92;;;;;;;21.78;53.39;100031.63;4972830;29;20023;-89
2022/04/30 01:27:04;;;;;;;4.97;2.85;;;;;;;21.77;53.40;100034.38;4971548;29;20031;-90
2022/04/30 01:29:30;;;;;;;4.45;2.90;;;;;;;21.77;53.23;100034.38;4971029;29;20457;-89
2022/04/30 01:37:29;;;;;;;4.00;2.70;;;;;;;21.71;53.44;100025.78;4973872;29;20115;-88
2022/04/30 01:40:03;;;;;;;4.00;2.83;;;;;;;21.71;53.43;100019.63;4972473;28;20035;-87
2022/04/30 01:42:33;;;;;;;4.40;3.10;;;;;;;21.71;53.54;100019.63;4971882;29;20035;-88
2022/04/30 01:45:00;;;;;;;3.75;2.72;;;;;;;21.71;53.33;100020.47;4972593;28;20055;-88
2022/04/30 01:47:28;;;;;;;5.20;2.90;;;;;;;21.69;53.54;100010.88;4972322;29;20425;-87
2022/04/30 01:49:53;;;;;;;4.13;2.85;;;;;;;21.69;53.50;100018.84;4971585;29;20023;-88
2022/04/30 01:52:19;;;;;;;4.38;2.90;;;;;;;21.69;53.64;100017.03;4972921;28;20042;-87
2022/04/30 01:54:45;;;;;;;4.63;3.00;;;;;;;21.67;53.39;100026.88;4972028;29;20099;-87
2022/04/30 01:57:11;;;;;;;4.60;3.15;;;;;;;21.67;53.38;100012.75;4987448;28;20034;-87
2022/04/30 01:59:36;;;;;;;4.22;2.92;;;;;;;21.68;53.36;100020.63;4954388;29;20097;-89
2022/04/30 02:02:03;;;;;;;4.03;2.70;;;;;;;21.66;53.48;100014.56;4988100;28;20031;-88
2022/04/30 02:04:30;;;;;;;4.10;2.95;;;;;;;21.66;53.21;100017.22;4972063;29;20043;-88
2022/04/30 02:06:59;;;;;;;4.22;2.75;;;;;;;21.66;53.33;100019.00;4973592;28;20020;-88
2022/04/30 02:09:28;;;;;;;4.93;2.97;;;;;;;21.66;53.47;100017.22;4975622;29;20043;-87
2022/04/30 02:11:58;;;;;;;3.72;2.63;;;;;;;21.65;53.38;100015.47;4974877;29;20042;-87
2022/04/30 02:14:28;;;;;;;4.40;2.60;;;;;;;21.65;53.75;100026.09;4974940;29;20019;-88
2022/04/30 02:16:53;;;;;;;4.30;2.97;;;;;;;21.64;53.41;100008.44;4975028;28;20027;-88
2022/04/30 02:19:21;;;;;;;4.47;2.97;;;;;;;21.64;53.31;100011.09;4958742;29;20046;-86
2022/04/30 02:21:47;;;;;;;4.25;2.80;;;;;;;21.65;53.12;100009.31;4959985;29;20039;-88
2022/04/30 02:24:15;;;;;;;4.22;2.80;;;;;;;21.62;53.29;100010.34;4991278;28;20031;-88
2022/04/30 02:26:43;;;;;;;4.15;2.60;;;;;;;21.62;53.45;100002.38;4975648;29;20035;-89
2022/04/30 02:29:10;;;;;;;3.50;2.45;;;;;;;21.63;53.30;100006.75;4976040;29;20023;-88
2022/04/30 02:31:36;;;;;;;4.05;2.67;;;;;;;21.61;53.34;100008.63;4975900;29;20035;-89
2022/04/30 02:34:02;;;;;;;4.32;2.88;;;;;;;21.62;53.35;100009.47;4992885;28;20030;-90
2022/04/30 02:36:28;;;;;;;4.38;2.78;;;;;;;21.60;53.29;100006.94;4976982;29;20035;-89
2022/04/30 02:38:54;;;;;;;4.00;2.63;;;;;;;21.59;53.18;100013.16;4959861;29;20039;-89
2022/04/30 02:41:21;;;;;;;3.90;2.53;;;;;;;21.59;53.25;100007.84;4976599;29;20031;-89
2022/04/30 02:43:51;;;;;;;3.90;2.45;;;;;;;21.58;53.18;100014.09;4976959;29;20047;-88
2022/04/30 02:46:17;;;;;;;4.55;2.95;;;;;;;21.58;53.23;100006.13;4975566;29;20102;-90
2022/04/30 02:48:43;;;;;;;4.00;2.60;;;;;;;21.56;53.27;100005.38;4975595;29;20027;-89
2022/04/30 02:51:10;;;;;;;3.50;2.55;;;;;;;21.55;53.41;100014.28;4976062;29;20029;-89
2022/04/30 02:53:39;;;;;;;3.75;2.55;;;;;;;21.54;53.00;100005.44;4977079;29;20015;-90
2022/04/30 02:56:05;;;;;;;4.28;2.70;;;;;;;21.55;53.27;99993.03;4977198;29;20023;-88
2022/04/30 03:01:16;;;;;;;4.55;2.40;;;;;;;21.52;53.41;99993.19;4975148;29;20045;-89
2022/04/30 03:03:42;;;;;;;4.65;2.72;;;;;;;21.52;53.41;99988.75;4958627;29;20067;-88
2022/04/30 03:06:09;;;;;;;3.53;2.45;;;;;;;21.52;53.21;99988.75;4974756;29;20031;-87
2022/04/30 03:08:35;;;;;;;4.50;2.55;;;;;;;21.53;53.16;99990.47;4991120;28;20031;-90
2022/04/30 03:11:03;;;;;;;3.20;2.10;;;;;;;21.52;53.21;99983.44;4974180;29;20369;-88
2022/04/30 03:13:30;;;;;;;4.10;2.88;;;;;;;21.52;53.09;99988.75;4974296;29;20077;-88
2022/04/30 03:21:40;;;;;;;4.47;2.85;;;;;;;21.52;53.33;99986.09;4974518;29;20088;-90
2022/04/30 03:21:44;;;;;;;4.00;2.53;;;;;;;21.51;53.31;99987.06;4975194;29;20413;-88
2022/04/30 03:24:19;;;;;;;3.90;2.30;;;;;;;21.50;53.15;99984.47;4974450;29;20027;-88
2022/04/30 03:26:46;;;;;;;4.03;2.83;;;;;;;21.49;53.57;99982.75;4989663;28;20037;-87
2022/04/30 03:29:12;;;;;;;3.33;2.42;;;;;;;21.47;53.34;99980.19;4974416;29;20030;-87
2022/04/30 03:31:41;;;;;;;3.30;2.45;;;;;;;21.49;53.19;99982.75;4975845;28;20023;-87
2022/04/30 03:34:12;;;;;;;3.53;2.50;;;;;;;21.48;53.26;99981.03;4975547;29;20195;-89
2022/04/30 03:36:38;;;;;;;4.28;2.95;;;;;;;21.48;53.24;99981.03;4958710;29;20372;-86
2022/04/30 03:39:04;;;;;;;3.60;2.53;;;;;;;21.46;53.17;99984.63;4976493;28;20062;-88
2022/04/30 03:41:30;;;;;;;4.05;2.58;;;;;;;21.45;53.12;99988.22;4974235;29;20031;-87
2022/04/30 03:43:56;;;;;;;3.53;2.20;;;;;;;21.44;53.32;99980.34;4990653;28;20090;-88
2022/04/30 03:46:21;;;;;;;3.97;2.60;;;;;;;21.44;53.08;99983.00;4975076;29;20051;-89
2022/04/30 03:48:53;;;;;;;3.95;2.80;;;;;;;21.43;53.32;99979.50;4974493;29;20026;-86
2022/04/30 03:51:22;;;;;;;4.03;2.70;;;;;;;21.41;53.09;99970.75;4973663;29;20094;-89
2022/04/30 03:53:49;;;;;;;3.85;2.38;;;;;;;21.39;53.24;99983.25;4958217;29;20042;-88
2022/04/30 03:56:17;;;;;;;3.70;2.15;;;;;;;21.40;53.08;99974.34;4974650;28;20062;-89
2022/04/30 03:58:47;;;;;;;3.80;2.45;;;;;;;21.40;53.12;99970.84;4957811;29;20035;-89
2022/04/30 04:01:14;;;;;;;4.45;2.85;;;;;;;21.40;53.14;99966.38;4973679;29;20042;-87
2022/04/30 04:03:41;;;;;;;3.35;2.40;;;;;;;21.40;52.92;99969.03;4975430;29;20023;-89
2022/04/30 04:06:07;;;;;;;4.20;2.72;;;;;;;21.40;53.21;99968.19;4974087;29;20034;-87
2022/04/30 04:08:34;;;;;;;3.38;2.45;;;;;;;21.38;53.31;99965.63;4976218;29;20038;-89
2022/04/30 04:11:00;;;;;;;4.93;2.58;;;;;;;21.39;53.05;99967.31;4973013;29;20031;-87
2022/04/30 04:18:55;;;;;;;3.15;2.13;;;;;;;21.36;52.93;99967.47;4975240;29;20066;-87
2022/04/30 04:21:22;;;;;;;4.57;2.70;;;;;;;21.38;53.12;99968.28;4972941;29;20023;-88
2022/04/30 04:26:32;;;;;;;3.50;2.38;;;;;;;21.37;53.30;99971.88;4960251;29;20045;-89
2022/04/30 04:28:59;;;;;;;4.47;3.25;;;;;;;21.36;52.96;99979.91;4974120;29;20103;-88
2022/04/30 04:31:24;;;;;;;3.53;2.60;;;;;;;21.34;53.20;99969.38;4972841;28;20043;-89
2022/04/30 04:33:51;;;;;;;3.50;2.30;;;;;;;21.36;53.15;99979.91;4972939;29;20038;-88
2022/04/30 04:36:16;;;;;;;4.57;2.55;;;;;;;21.36;53.08;99982.56;4957629;29;20027;-88
2022/04/30 04:38:43;;;;;;;5.05;2.95;;;;;;;21.33;53.16;99986.25;4974074;29;20110;-88
2022/04/30 04:41:08;;;;;;;4.30;2.40;;;;;;;21.32;53.31;99993.34;4975256;29;20031;-89
2022/04/30 04:43:34;;;;;;;3.85;2.60;;;;;;;21.32;52.98;99989.84;4990022;28;20078;-88
2022/04/30 04:46:02;;;;;;;3.75;2.45;;;;;;;21.31;53.22;99988.97;4958213;29;20031;-88
2022/04/30 04:48:31;;;;;;;3.05;2.13;;;;;;;21.31;53.09;99988.13;4974430;29;20039;-88
2022/04/30 04:50:57;;;;;;;4.50;2.88;;;;;;;21.32;53.13;99989.84;4958350;29;20043;-89
2022/04/30 04:53:23;;;;;;;3.80;2.28;;;;;;;21.30;52.92;99984.59;4974776;29;20121;-89
2022/04/30 04:55:49;;;;;;;3.50;2.50;;;;;;;21.28;53.16;99997.13;4958358;29;20035;-89
2022/04/30 04:58:18;;;;;;;4.10;2.80;;;;;;;21.30;53.12;100002.31;4973908;29;20047;-89
2022/04/30 05:00:43;;;;;;;3.95;2.40;;;;;;;21.28;53.14;100006.88;4973834;29;20035;-89
2022/04/30 05:03:09;;;;;;;3.08;2.28;;;;;;;21.28;53.07;100001.56;4974016;29;20046;-87
2022/04/30 05:05:35;;;;;;;4.47;2.47;;;;;;;21.27;52.98;100005.16;4975048;29;20042;-88
2022/04/30 05:08:02;;;;;;;3.85;2.70;;;;;;;21.26;53.17;100000.78;4975256;28;20038;-89
2022/04/30 05:10:28;;;;;;;4.28;2.90;;;;;;;21.24;53.21;100003.53;4974922;29;20039;-89
2022/04/30 05:12:53;;;;;;;4.10;2.72;;;;;;;21.27;53.27;100010.47;4973360;29;20046;-89
2022/04/30 05:15:19;;;;;;;4.25;3.00;;;;;;;21.25;52.99;100007.03;4958469;29;20027;-87
2022/04/30 05:17:45;;;;;;;3.80;2.20;;;;;;;21.24;53.17;100005.31;4974934;29;20031;-90
2022/04/30 05:20:11;;;;;;;4.22;2.42;;;;;;;21.23;53.22;100008.91;4975857;29;20036;-90
2022/04/30 05:22:36;;;;;;;3.50;2.28;;;;;;;21.25;53.00;100015.00;4976100;29;20096;-89
2022/04/30 05:25:02;;;;;;;3.63;2.53;;;;;;;21.24;53.12;100018.56;4990864;28;20031;-87
2022/04/30 05:27:27;;;;;;;4.10;2.72;;;;;;;21.24;53.32;100023.88;4974030;28;20063;-89
2022/04/30 05:29:54;;;;;;;5.03;2.90;;;;;;;21.21;53.13;100027.56;4973856;28;20007;-87
2022/04/30 05:32:20;;;;;;;3.60;2.70;;;;;;;21.21;53.09;100016.09;4974115;29;20038;-88
2022/04/30 05:34:46;;;;;;;4.47;3.10;;;;;;;21.20;53.09;100031.16;4957880;29;20040;-89
2022/04/30 05:37:13;;;;;;;3.60;2.55;;;;;;;21.17;53.23;100021.56;4974629;29;20039;-89
2022/04/30 05:39:39;;;;;;;3.70;2.30;;;;;;;21.18;52.93;100027.75;4941895;29;20408;-87
2022/04/30 05:42:05;;;;;;;4.90;2.83;;;;;;;21.17;52.94;100021.56;4974598;28;20063;-86
2022/04/30 05:44:31;;;;;;;3.47;2.33;;;;;;;21.16;53.17;100030.47;4961384;29;20512;-87
2022/04/30 05:46:56;;;;;;;4.10;2.80;;;;;;;21.18;53.13;100025.94;4977274;29;20027;-89
2022/04/30 05:49:22;;;;;;;4.15;2.55;;;;;;;21.19;52.95;100038.28;4992369;28;20027;-88
2022/04/30 05:51:49;;;;;;;3.65;2.70;;;;;;;21.17;52.91;100034.00;4976009;29;20031;-89
2022/04/30 05:54:15;;;;;;;4.18;3.08;;;;;;;21.15;52.89;100036.72;4976041;29;20031;-88
2022/04/30 05:56:40;;;;;;;3.80;2.72;;;;;;;21.14;53.13;100037.66;4991830;28;20128;-89
2022/04/30 05:59:06;;;;;;;5.65;3.17;;;;;;;21.16;52.94;100043.72;4977177;29;20031;-87
2022/04/30 06:01:31;;;;;;;4.32;3.00;;;;;;;21.13;52.88;100043.91;4976872;29;20024;-87
2022/04/30 06:03:57;;;;;;;4.22;2.72;;;;;;;21.15;53.08;100049.13;4976815;29;20038;-89
2022/04/30 06:06:23;;;;;;;3.83;3.00;;;;;;;21.14;53.00;100042.97;4977412;29;20023;-89
2022/04/30 06:08:48;;;;;;;3.22;2.28;;;;;;;21.13;53.00;100045.69;4977301;29;20019;-89
2022/04/30 06:11:14;;;;;;;4.18;2.72;;;;;;;21.14;53.22;100053.56;4978587;28;20019;-89
2022/04/30 06:13:40;;;;;;;3.72;2.47;;;;;;;21.12;52.90;100051.94;4993310;28;20012;-86
2022/04/30 06:16:05;;;;;;;5.20;2.90;;;;;;;21.11;53.14;100051.06;4977582;29;20011;-87
2022/04/30 06:18:31;;;;;;;3.58;2.65;;;;;;;21.11;53.04;100047.56;4977163;29;20075;-88
2022/04/30 06:20:57;;;;;;;3.53;2.42;;;;;;;21.11;52.97;100048.41;4976566;29;20067;-87
2022/04/30 06:23:23;;;;;;;3.22;2.50;;;;;;;21.12;52.82;100050.13;4993564;28;20027;-91
2022/04/30 06:25:48;;;;;;;3.65;2.67;;;;;;;21.11;53.03;100048.41;4993747;28;20485;-88
2022/04/30 06:28:14;;;;;;;3.22;2.40;;;;;;;21.12;52.95;100054.59;4976676;29;20476;-86
2022/04/30 06:30:41;;;;;;;3.78;2.92;;;;;;;21.13;52.93;100051.00;4976043;29;20039;-88
2022/04/30 06:33:07;;;;;;;4.53;2.78;;;;;;;21.12;53.08;100049.28;4975672;29;20035;-88
2022/04/30 06:35:33;;;;;;;4.03;2.65;;;;;;;21.11;52.89;100053.72;4993138;28;20023;-88
2022/04/30 06:38:00;;;;;;;3.70;2.60;;;;;;;21.12;52.86;100052.78;4976494;28;20083;-87
2022/04/30 06:40:26;;;;;;;4.22;2.40;;;;;;;21.09;52.98;100044.13;4960848;29;20027;-89
2022/04/30 06:42:52;;;;;;;4.45;3.10;;;;;;;21.12;52.89;100050.13;4976549;29;20038;-89
2022/04/30 06:45:18;;;;;;;3.80;2.63;;;;;;;21.12;53.06;100044.81;4976630;29;20477;-89
2022/04/30 06:47:44;;;;;;;3.95;3.03;;;;;;;21.11;52.95;100053.72;4975747;29;20483;-88
2022/04/30 06:50:10;;;;;;;3.22;2.30;;;;;;;21.12;52.84;100058.09;4976602;28;20055;-88
2022/04/30 06:57:07;;;;;;;3.75;3.00;;;;;;;21.12;52.75;100060.75;4975076;28;20027;-88
2022/04/30 06:58:07;;;;;;;5.07;3.17;;;;;;;21.12;52.94;100063.41;4978229;29;19905;-87
2022/04/30 07:03:19;;;;;;;3.85;2.90;;;;;;;21.14;52.81;100073.94;4977409;29;20042;-89
2022/04/30 07:05:46;;;;;;;3.97;2.88;;;;;;;21.13;52.81;100073.09;4961447;29;20058;-88
2022/04/30 07:08:11;;;;;;;4.30;2.85;;;;;;;21.12;52.93;100074.00;4976548;29;20056;-88
2022/04/30 07:10:37;;;;;;;4.80;3.22;;;;;;;21.10;52.92;100073.25;4976386;29;20019;-88
2022/04/30 07:13:03;;;;;;;3.92;2.83;;;;;;;21.09;52.95;100071.53;4975887;28;20027;-87
2022/04/30 07:15:29;;;;;;;4.30;2.97;;;;;;;21.10;52.71;100073.25;4961045;29;20026;-89
2022/04/30 07:17:54;;;;;;;5.28;3.00;;;;;;;21.10;52.94;100078.56;4974164;29;20019;-89
2022/04/30 07:20:20;;;;;;;4.20;2.70;;;;;;;21.08;52.98;100080.44;4974337;29;20070;-89
2022/04/30 07:22:46;;;;;;;4.43;2.97;;;;;;;21.08;52.86;100085.75;4973016;29;20023;-88
2022/04/30 07:25:11;;;;;;;5.45;3.38;;;;;;;21.09;52.86;100082.16;4973385;29;20023;-87
2022/04/30 07:27:37;;;;;;;4.47;3.15;;;;;;;21.08;52.83;100079.56;4973900;29;20103;-87
2022/04/30 07:30:03;;;;;;;4.00;2.70;;;;;;;21.11;52.68;100080.25;4991050;28;20037;-89
2022/04/30 07:32:29;;;;;;;3.90;2.95;;;;;;;21.11;52.74;100080.25;4991825;28;20027;-89
2022/04/30 07:34:55;;;;;;;4.22;2.90;;;;;;;21.11;52.77;100077.59;4976149;29;20030;-89
2022/04/30 07:37:20;;;;;;;3.97;2.90;;;;;;;21.11;52.84;100074.94;4976971;28;20488;-89
2022/04/30 07:39:46;;;;;;;4.18;2.90;;;;;;;21.12;52.68;100084.63;4975954;29;20027;-90
2022/04/30 07:42:12;;;;;;;5.82;3.35;;;;;;;21.12;52.47;100078.47;4975625;29;20120;-90
2022/04/30 07:44:38;;;;;;;5.50;3.53;;;;;;;21.09;52.55;100078.63;4975859;29;20043;-91
2022/04/30 07:47:04;;;;;;;4.72;3.13;;;;;;;21.09;52.70;100082.16;4974829;29;20050;-90
2022/04/30 07:49:31;;;;;;;4.70;3.22;;;;;;;21.09;52.76;100079.50;4991438;28;20091;-91
2022/04/30 07:51:56;;;;;;;3.42;2.60;;;;;;;21.07;52.94;100081.38;4975314;28;20038;-90
2022/04/30 07:54:26;;;;;;;8.18;3.47;;;;;;;21.05;52.81;100072.63;4976025;28;20071;-87
2022/04/30 07:56:57;;;;;;;4.95;3.45;;;;;;;21.06;52.72;100076.97;4991481;28;20027;-90
2022/04/30 07:59:23;;;;;;;4.10;3.05;;;;;;;21.06;52.88;100072.53;4990955;28;20090;-88
2022/04/30 08:01:50;;;;;;;4.82;3.60;;;;;;;21.06;52.81;100076.97;4974871;29;20086;-87
2022/04/30 08:04:16;;;;;;;5.95;4.03;;;;;;;21.06;52.75;100076.97;4975055;28;20058;-87
2022/04/30 08:06:42;;;;;;;4.28;3.47;;;;;;;21.07;52.55;100073.41;4975246;29;20031;-88
2022/04/30 08:09:07;;;;;;;5.05;3.30;;;;;;;21.06;52.72;100077.84;4976015;29;20035;-88
2022/04/30 08:11:34;;;;;;;4.30;3.10;;;;;;;21.07;52.86;100078.72;4974771;29;20507;-87
2022/04/30 08:14:00;;;;;;;4.68;3.10;;;;;;;21.10;52.77;100077.72;4974286;29;20027;-89
2022/04/30 08:16:27;;;;;;;4.90;3.30;;;;;;;21.11;52.76;100080.25;4974672;28;20051;-88
2022/04/30 08:18:53;;;;;;;4.32;3.28;;;;;;;21.11;52.62;100064.34;4975033;29;20031;-89
2022/04/30 08:21:19;;;;;;;4.90;3.45;;;;;;;21.11;52.83;100080.25;4974097;29;20035;-88
2022/04/30 08:23:45;;;;;;;5.82;4.25;;;;;;;21.10;52.49;100067.94;4956847;29;20043;-87
2022/04/30 08:26:10;;;;;;;6.13;3.70;;;;;;;21.08;52.56;100077.78;4973391;29;20027;-86
2022/04/30 08:28:36;;;;;;;5.07;3.63;;;;;;;21.07;52.72;100068.13;4973228;29;20377;-88
2022/04/30 08:31:02;;;;;;;5.25;3.70;;;;;;;21.07;52.53;100078.72;4973289;29;20050;-87
2022/04/30 08:33:28;;;;;;;5.47;3.90;;;;;;;21.06;52.81;100071.69;4973920;29;20035;-89
2022/04/30 08:35:56;;;;;;;5.20;3.63;;;;;;;21.08;52.83;100069.81;4958482;29;20043;-90
2022/04/30 08:38:22;;;;;;;3.95;3.15;;;;;;;21.11;52.53;100080.25;4992633;28;20031;-91
2022/04/30 08:40:53;;;;;;;4.65;3.28;;;;;;;21.10;52.72;100077.72;4992301;28;20102;-92
2022/04/30 08:43:20;;;;;;;5.15;3.55;;;;;;;21.10;52.58;100073.25;4960469;29;20106;-92
2022/04/30 08:45:46;;;;;;;4.63;3.38;;;;;;;21.11;52.60;100077.59;4971858;29;20469;-88
2022/04/30 08:48:14;;;;;;;4.53;3.22;;;;;;;21.10;52.69;100073.25;4970821;29;20103;-88
2022/04/30 08:50:44;;;;;;;6.45;3.80;;;;;;;21.10;52.61;100072.41;4972642;29;20058;-87
2022/04/30 08:53:10;;;;;;;6.28;4.07;;;;;;;21.11;52.65;100080.25;4971621;29;20055;-88
2022/04/30 08:55:37;;;;;;;6.55;4.32;;;;;;;21.12;52.49;100067.88;4955205;29;20376;-89
2022/04/30 08:58:02;;;;;;;5.55;3.45;;;;;;;21.10;52.69;100073.25;4970523;29;20031;-90
2022/04/30 09:00:28;;;;;;;5.10;3.55;;;;;;;21.12;52.74;100075.81;4972335;29;20031;-91
2022/04/30 09:02:57;;;;;;;5.15;3.58;;;;;;;21.11;52.46;100079.41;4972048;29;20117;-90
2022/04/30 09:05:31;;;;;;;5.40;3.58;;;;;;;21.13;52.43;100078.41;4972585;29;20035;-90
2022/04/30 09:07:59;;;;;;;4.35;3.30;;;;;;;21.15;52.32;100076.53;4989173;28;20125;-90
2022/04/30 09:10:31;;;;;;;4.78;3.63;;;;;;;21.13;52.70;100078.41;4988674;28;20027;-91
2022/04/30 09:13:10;;;;;;;5.38;3.97;;;;;;;21.14;52.61;100079.25;4971454;29;20042;-89
2022/04/30 09:15:41;;;;;;;4.57;3.25;;;;;;;21.15;52.59;100076.53;4972808;28;20038;-89
2022/04/30 09:18:08;;;;;;;8.07;5.05;;;;;;;21.15;52.36;100073.00;4978637;28;20031;-90
2022/04/30 09:20:49;;;;;;;4.53;3.60;;;;;;;21.17;52.39;100079.94;4976800;29;20016;-90
2022/04/30 09:23:31;;;;;;;4.63;3.70;;;;;;;21.15;52.51;100067.69;4977038;29;20077;-89
2022/04/30 09:25:58;;;;;;;5.63;4.15;;;;;;;21.16;52.48;100066.78;4977482;29;20026;-89
2022/04/30 09:28:29;;;;;;;5.47;4.50;;;;;;;21.16;52.64;100072.09;4993154;28;20172;-90
2022/04/30 09:31:13;;;;;;;5.05;3.92;;;;;;;21.19;52.41;100062.16;4978080;29;20094;-90
2022/04/30 09:37:41;;;;;;;5.70;4.35;;;;;;;21.21;52.44;100063.88;4978606;28;20035;-88
2022/04/30 09:39:37;;;;;;;5.72;4.30;;;;;;;21.23;52.37;100056.69;4978403;29;20042;-89
2022/04/30 09:42:03;;;;;;;5.97;4.22;;;;;;;21.24;52.32;100063.69;4993288;28;20031;-89
2022/04/30 09:44:29;;;;;;;5.32;3.65;;;;;;;21.24;52.33;100058.38;4961214;29;20139;-88
2022/04/30 09:46:56;;;;;;;4.25;3.30;;;;;;;21.26;52.25;100062.69;4976394;28;20015;-90
2022/04/30 09:54:52;;;;;;;5.57;4.10;;;;;;;21.28;52.30;100054.63;4978206;29;20099;-91
2022/04/30 09:57:18;;;;;;;4.55;3.40;;;;;;;21.29;52.19;100057.22;4976675;28;20070;-90
2022/04/30 09:59:46;;;;;;;5.40;4.20;;;;;;;21.30;52.11;100056.28;4976408;29;20019;-88
2022/04/30 10:02:13;;;;;;;5.45;3.90;;;;;;;21.33;52.35;100060.56;4977479;29;20027;-89
2022/04/30 10:04:42;;;;;;;4.82;3.85;;;;;;;21.34;52.16;100054.31;4977480;29;20043;-89
2022/04/30 10:07:10;;;;;;;4.60;3.42;;;;;;;21.34;52.34;100049.00;4976317;29;20031;-90
2022/04/30 10:09:39;;;;;;;5.25;4.05;;;;;;;21.38;52.12;100047.91;4993271;28;20034;-90
2022/04/30 10:12:14;;;;;;;5.57;3.40;;;;;;;21.39;52.24;100046.09;4977307;29;20107;-89
2022/04/30 10:14:50;;;;;;;5.22;3.72;;;;;;;21.41;52.24;100039.75;4976813;29;20035;-90
2022/04/30 10:17:17;;;;;;;;;;;;;;;21.41;52.40;100042.41;4977561;29;20098;-89
2022/04/30 10:20:07;;;;;;;5.47;3.90;;;;;;;21.43;52.17;100040.56;4977632;29;19990;-88
2022/04/30 10:22:33;;;;;;;4.88;3.53;;;;;;;21.44;52.27;100034.31;4976779;29;20035;-88
2022/04/30 10:24:59;;;;;;;4.75;3.40;;;;;;;21.45;52.07;100030.69;4992797;28;20027;-87
2022/04/30 10:27:41;;;;;;;4.93;3.75;;;;;;;21.46;52.14;100036.88;4975824;28;20109;-86
2022/04/30 10:30:24;;;;;;;5.53;3.65;;;;;;;21.48;52.32;100023.50;4975628;29;20047;-89
2022/04/30 10:33:01;;;;;;;4.90;3.47;;;;;;;21.49;52.20;100025.25;4975763;29;20038;-89
2022/04/30 10:35:35;;;;;;;5.10;3.67;;;;;;;21.53;52.14;100029.44;4992553;28;20015;-90
2022/04/30 10:38:10;;;;;;;5.00;4.03;;;;;;;21.55;52.20;100030.22;4992271;28;20034;-90
2022/04/30 10:40:40;;;;;;;4.43;3.70;;;;;;;21.57;51.87;100025.66;4975802;29;20045;-90
2022/04/30 10:43:27;;;;;;;5.15;3.70;;;;;;;21.59;51.96;100021.13;4975660;29;20095;-88
2022/04/30 10:45:55;;;;;;;5.30;4.15;;;;;;;21.62;52.08;100020.97;4977032;29;20046;-88
2022/04/30 10:48:23;;;;;;;4.80;3.88;;;;;;;21.62;52.38;100020.97;4993234;28;20050;-90
2022/04/30 10:50:56;;;;;;;4.45;3.47;;;;;;;21.64;51.94;100013.75;4945017;29;20031;-91
2022/04/30 10:53:28;;;;;;;5.22;3.80;;;;;;;21.66;52.02;100017.22;4976962;28;20027;-87
2022/04/30 10:55:54;;;;;;;5.43;4.30;;;;;;;21.67;52.00;100008.28;4962203;29;20082;-88
2022/04/30 10:58:24;;;;;;;5.57;4.00;;;;;;;21.70;51.79;99997.53;4992358;28;20106;-88
2022/04/30 11:00:52;;;;;;;5.28;3.58;;;;;;;21.72;52.15;100000.09;4993426;28;20027;-89
2022/04/30 11:03:18;;;;;;;5.57;4.05;;;;;;;21.73;51.99;99992.06;4977605;29;20051;-89
2022/04/30 11:05:48;;;;;;;5.43;3.85;;;;;;;21.74;52.06;99992.88;4960993;29;20037;-89
2022/04/30 11:08:14;;;;;;;6.30;4.07;;;;;;;21.76;52.00;99985.72;4977032;29;20103;-88
2022/04/30 11:10:52;;;;;;;5.00;4.03;;;;;;;21.78;51.99;99993.59;4977775;28;20373;-87
2022/04/30 11:13:18;;;;;;;5.47;4.22;;;;;;;21.79;52.00;99974.06;4961621;29;20042;-88
2022/04/30 11:15:44;;;;;;;5.10;3.90;;;;;;;21.82;51.99;99968.56;4977310;29;20390;-90
2022/04/30 11:18:10;;;;;;;6.03;4.00;;;;;;;21.83;51.87;99971.13;4976653;29;20031;-89
2022/04/30 11:20:36;;;;;;;4.50;3.55;;;;;;;21.83;51.82;99971.13;4962442;29;20103;-89
2022/04/30 11:23:02;;;;;;;6.47;4.03;;;;;;;21.86;51.99;99965.66;4977651;29;20015;-89
2022/04/30 11:25:38;;;;;;;5.50;4.22;;;;;;;21.88;51.99;99967.38;4977653;29;20369;-87
2022/04/30 11:28:08;;;;;;;;;;;;;;;21.90;51.69;99965.47;4977073;29;20047;-87
2022/04/30 11:30:38;;;;;;;5.03;3.83;;;;;;;21.91;51.96;99964.53;4978152;29;19938;-88
2022/04/30 11:33:06;;;;;;;5.97;4.05;;;;;;;21.91;51.83;99951.25;4977447;29;20062;-88
2022/04/30 11:35:32;;;;;;;4.38;3.50;;;;;;;21.92;51.91;99945.84;4945600;29;20050;-89
2022/04/30 11:37:58;;;;;;;4.57;3.78;;;;;;;21.93;51.83;99954.69;4977431;29;20074;-87
2022/04/30 11:40:27;;;;;;;5.22;3.75;;;;;;;21.95;51.75;99951.00;4978360;28;20039;-89
2022/04/30 11:43:10;;;;;;;4.53;3.67;;;;;;;21.95;51.72;99947.47;4975954;29;20023;-89
2022/04/30 11:45:46;;;;;;;4.20;3.33;;;;;;;21.98;51.75;99950.81;4976123;29;20051;-88
2022/04/30 11:48:12;;;;;;;4.30;3.67;;;;;;;21.98;51.84;99948.16;4977040;29;20038;-87
2022/04/30 11:50:40;;;;;;;5.22;3.75;;;;;;;21.99;51.85;99941.03;4978050;29;20027;-89
2022/04/30 11:53:07;;;;;;;4.55;3.80;;;;;;;21.99;51.90;99931.25;4961485;29;20046;-87
2022/04/30 11:55:37;;;;;;;4.65;3.60;;;;;;;22.03;51.69;99931.09;4977804;29;20027;-88
2022/04/30 11:58:04;;;;;;;4.80;3.58;;;;;;;22.05;51.90;99935.38;4977366;29;20094;-88
2022/04/30 12:00:34;;;;;;;4.82;3.60;;;;;;;22.05;51.69;99926.53;4978128;29;20039;-87
2022/04/30 12:03:00;;;;;;;4.60;3.58;;;;;;;22.07;51.51;99924.63;4961991;29;20042;-89